Time;durP1;ratioP1;P1;durP2;ratioP2;P2;SDS_P1;SDS_P2;PMS_P1;PMS_P2;Temp;Humidity;BMP_temperature;BMP_pressure;BME280_temperature;BME280_humidity;BME280_pressure;Samples;Min_cycle;Max_cycle;Signal;HPM_P1;HPM_P2
2021/08/10 00:02:31;;;;;;;5.45;3.00;;;15.20;99.90;;;;;;6236213;28;20046;-80
2021/08/10 00:05:33;;;;;;;4.20;2.08;;;15.20;99.90;;;;;;6236313;28;20511;-79
2021/08/10 00:08:35;;;;;;;3.47;2.85;;;15.20;99.90;;;;;;6234392;28;20050;-80
2021/08/10 00:11:37;;;;;;;5.07;2.45;;;15.10;99.90;;;;;;6234964;28;20046;-79
2021/08/10 00:14:39;;;;;;;7.07;3.50;;;15.20;99.90;;;;;;6234772;28;20100;-80
2021/08/10 00:17:42;;;;;;;10.00;3.80;;;15.10;99.90;;;;;;6233891;28;20135;-79
2021/08/10 00:20:44;;;;;;;3.35;2.55;;;15.10;99.90;;;;;;6232473;28;20132;-79
2021/08/10 00:23:46;;;;;;;6.00;3.50;;;15.00;99.90;;;;;;6233799;28;20049;-79
2021/08/10 00:26:48;;;;;;;4.95;3.28;;;15.00;99.90;;;;;;6231563;28;20046;-79
2021/08/10 00:29:50;;;;;;;7.07;2.63;;;14.90;99.90;;;;;;6231728;28;20128;-79
2021/08/10 00:32:53;;;;;;;10.23;3.75;;;14.90;99.90;;;;;;6232636;28;20062;-79
2021/08/10 00:35:55;;;;;;;5.03;2.50;;;14.90;99.90;;;;;;6232096;28;20128;-80
2021/08/10 00:38:57;;;;;;;8.20;3.00;;;14.90;99.90;;;;;;6236875;28;20045;-80
2021/08/10 00:41:59;;;;;;;5.55;3.33;;;14.80;99.90;;;;;;6258975;28;20045;-81
2021/08/10 00:45:01;;;;;;;3.72;2.40;;;14.80;99.90;;;;;;6258297;28;20041;-82
2021/08/10 00:48:04;;;;;;;8.43;3.83;;;14.80;99.90;;;;;;6257684;28;20046;-80
2021/08/10 00:51:08;;;;;;;6.72;2.63;;;14.80;99.90;;;;;;6256379;28;20101;-81
2021/08/10 00:54:10;;;;;;;5.80;3.03;;;14.80;99.90;;;;;;6256980;28;20081;-81
2021/08/10 00:57:12;;;;;;;4.05;2.83;;;14.70;99.90;;;;;;6256624;28;20148;-81
2021/08/10 01:00:14;;;;;;;4.65;2.50;;;14.70;99.90;;;;;;6258575;28;20041;-80
2021/08/10 01:03:17;;;;;;;4.65;2.38;;;14.70;99.90;;;;;;6259833;28;20057;-80
2021/08/10 01:06:25;;;;;;;3.80;3.10;;;14.70;99.90;;;;;;6256245;28;20072;-79
2021/08/10 01:09:33;;;;;;;3.80;3.47;;;14.70;99.90;;;;;;6256138;28;20096;-79
2021/08/10 01:12:43;;;;;;;6.10;2.72;;;14.60;99.90;;;;;;6255371;28;20081;-79
2021/08/10 01:15:51;;;;;;;6.35;3.50;;;14.60;99.90;;;;;;6255460;28;20105;-79
2021/08/10 01:19:02;;;;;;;2.95;2.65;;;14.60;99.90;;;;;;6256242;28;20115;-79
2021/08/10 01:22:07;;;;;;;4.10;3.10;;;14.50;99.90;;;;;;6256786;28;20050;-79
2021/08/10 01:25:22;;;;;;;3.58;2.45;;;14.50;99.90;;;;;;6256170;28;20049;-79
2021/08/10 01:28:41;;;;;;;7.07;2.63;;;14.50;99.90;;;;;;6256478;28;20073;-80
2021/08/10 01:31:45;;;;;;;3.25;2.72;;;14.50;99.90;;;;;;6254644;28;20554;-79
2021/08/10 01:34:49;;;;;;;3.10;2.70;;;14.50;99.90;;;;;;6253979;28;20049;-79
2021/08/10 01:37:55;;;;;;;5.13;2.90;;;14.40;99.90;;;;;;6254028;28;20109;-79
2021/08/10 01:40:58;;;;;;;9.13;4.32;;;14.40;99.90;;;;;;6254623;28;20101;-79
2021/08/10 01:44:02;;;;;;;4.68;2.80;;;14.30;99.90;;;;;;6252662;28;20538;-78
2021/08/10 01:47:07;;;;;;;6.53;2.70;;;14.40;99.90;;;;;;6253068;28;20550;-78
2021/08/10 01:50:10;;;;;;;6.18;3.05;;;14.30;99.90;;;;;;6254516;28;20045;-80
2021/08/10 01:53:13;;;;;;;6.82;3.25;;;14.30;99.90;;;;;;6254232;28;20077;-80
2021/08/10 01:56:15;;;;;;;2.92;2.50;;;14.30;99.90;;;;;;6252728;28;20119;-79
2021/08/10 01:59:18;;;;;;;4.38;3.35;;;14.20;99.90;;;;;;6253675;28;20088;-79
2021/08/10 02:02:22;;;;;;;5.78;2.70;;;14.20;99.90;;;;;;6255136;28;20054;-81
2021/08/10 02:05:24;;;;;;;4.05;2.70;;;14.20;99.90;;;;;;6256339;28;20128;-79
2021/08/10 02:08:28;;;;;;;4.82;2.55;;;14.20;99.90;;;;;;6258094;28;20053;-80
2021/08/10 02:11:31;;;;;;;5.30;2.97;;;14.20;99.90;;;;;;6259260;28;20042;-80
2021/08/10 02:14:34;;;;;;;3.53;2.40;;;14.20;99.90;;;;;;6256954;28;20081;-78
2021/08/10 02:17:37;;;;;;;5.55;2.85;;;14.20;99.90;;;;;;6256121;28;20061;-80
2021/08/10 02:20:43;;;;;;;6.13;3.00;;;14.20;99.90;;;;;;6255176;28;20092;-79
2021/08/10 02:23:47;;;;;;;9.38;3.45;;;14.20;99.90;;;;;;6255446;28;20052;-79
2021/08/10 02:26:54;;;;;;;5.97;2.92;;;14.20;99.90;;;;;;6255538;28;20160;-80
2021/08/10 02:29:57;;;;;;;9.93;2.67;;;14.20;99.90;;;;;;6259765;28;20136;-80
2021/08/10 02:33:05;;;;;;;4.53;3.28;;;14.20;99.90;;;;;;6256871;28;20045;-79
2021/08/10 02:36:08;;;;;;;4.25;2.90;;;14.10;99.90;;;;;;6254244;28;20057;-79
2021/08/10 02:39:11;;;;;;;7.65;2.38;;;14.10;99.90;;;;;;6256346;28;20116;-79
2021/08/10 02:42:15;;;;;;;3.33;2.15;;;14.10;99.90;;;;;;6257524;28;20076;-80
2021/08/10 02:45:17;;;;;;;4.07;2.58;;;14.10;99.90;;;;;;6254812;28;20515;-78
2021/08/10 02:48:20;;;;;;;6.28;2.67;;;14.10;99.90;;;;;;6255083;28;20068;-79
2021/08/10 02:51:22;;;;;;;5.75;2.40;;;14.00;99.90;;;;;;6254955;28;20042;-79
2021/08/10 02:54:24;;;;;;;4.07;2.83;;;14.00;99.90;;;;;;6256095;28;20073;-80
2021/08/10 02:57:30;;;;;;;3.47;2.40;;;14.00;99.90;;;;;;6254199;28;20518;-80
2021/08/10 03:00:37;;;;;;;5.03;2.33;;;14.00;99.90;;;;;;6255225;28;20045;-79
2021/08/10 03:03:41;;;;;;;5.30;2.53;;;14.00;99.90;;;;;;6288685;23;20110;-76
2021/08/10 03:06:43;;;;;;;3.75;2.50;;;14.00;99.90;;;;;;6274777;28;20135;-75
2021/08/10 03:09:48;;;;;;;3.88;2.22;;;14.00;99.90;;;;;;6275224;28;20505;-75
2021/08/10 03:12:52;;;;;;;3.47;2.65;;;13.90;99.90;;;;;;6274653;28;20548;-75
2021/08/10 03:15:56;;;;;;;3.45;2.47;;;13.90;99.90;;;;;;6274614;28;20044;-75
2021/08/10 03:19:02;;;;;;;5.57;2.42;;;13.90;99.90;;;;;;6274544;28;20068;-75
2021/08/10 03:22:05;;;;;;;3.92;3.08;;;13.90;99.90;;;;;;6275409;28;20045;-76
2021/08/10 03:25:09;;;;;;;9.65;4.60;;;13.80;99.90;;;;;;6274492;28;20071;-76
2021/08/10 03:28:13;;;;;;;6.93;2.55;;;13.90;99.90;;;;;;6274474;28;20130;-76
2021/08/10 03:31:16;;;;;;;3.05;2.25;;;13.90;99.90;;;;;;6274610;28;20163;-75
2021/08/10 03:34:20;;;;;;;3.40;2.28;;;14.00;99.90;;;;;;6274926;28;20080;-75
2021/08/10 03:37:22;;;;;;;5.25;3.30;;;14.20;99.90;;;;;;6273935;28;20041;-75
2021/08/10 03:40:24;;;;;;;3.67;3.25;;;14.30;99.90;;;;;;6273917;28;20527;-76
2021/08/10 03:43:28;;;;;;;4.25;2.08;;;14.40;99.90;;;;;;6274360;28;20132;-75
2021/08/10 03:46:32;;;;;;;7.95;3.65;;;14.50;99.90;;;;;;6273901;28;20410;-76
2021/08/10 03:49:35;;;;;;;4.28;2.60;;;14.50;99.90;;;;;;6273866;28;20514;-75
2021/08/10 03:52:37;;;;;;;4.38;3.05;;;14.50;99.90;;;;;;6273733;28;20079;-76
2021/08/10 03:55:40;;;;;;;3.70;2.70;;;14.50;99.90;;;;;;6273687;28;20502;-75
2021/08/10 03:58:45;;;;;;;7.43;2.65;;;14.50;99.90;;;;;;6273782;28;20081;-76
2021/08/10 04:01:49;;;;;;;4.68;1.95;;;14.50;99.90;;;;;;6274200;28;20134;-75
2021/08/10 04:04:54;;;;;;;6.47;2.45;;;14.50;99.90;;;;;;6273633;28;20417;-76
2021/08/10 04:07:56;;;;;;;2.45;2.25;;;14.50;99.90;;;;;;6273381;28;20041;-75
2021/08/10 04:10:59;;;;;;;5.75;2.67;;;14.50;99.90;;;;;;6273484;28;20402;-75
2021/08/10 04:14:01;;;;;;;4.18;2.85;;;14.40;99.90;;;;;;6274001;28;20045;-75
2021/08/10 04:17:05;;;;;;;5.65;2.38;;;14.40;99.90;;;;;;6272206;28;20435;-76
2021/08/10 04:20:09;;;;;;;6.75;3.00;;;14.50;99.90;;;;;;6273321;28;20060;-76
2021/08/10 04:23:11;;;;;;;6.25;3.10;;;14.50;99.90;;;;;;6272987;28;20418;-75
2021/08/10 04:26:13;;;;;;;2.47;2.28;;;14.50;99.90;;;;;;6274438;28;20052;-75
2021/08/10 04:29:14;;;;;;;4.75;2.55;;;14.50;99.90;;;;;;6272937;28;20049;-75
2021/08/10 04:32:16;;;;;;;3.17;2.63;;;14.60;99.90;;;;;;6272906;28;20041;-75
2021/08/10 04:35:19;;;;;;;3.13;2.72;;;14.70;99.90;;;;;;6273016;28;20087;-75
2021/08/10 04:38:21;;;;;;;4.35;2.78;;;14.80;99.90;;;;;;6272972;28;20064;-75
2021/08/10 04:41:23;;;;;;;4.30;2.60;;;14.80;99.90;;;;;;6272576;28;20132;-75
2021/08/10 04:44:25;;;;;;;5.82;2.80;;;14.80;99.90;;;;;;6272467;28;20051;-74
2021/08/10 04:47:27;;;;;;;6.68;2.65;;;15.00;99.90;;;;;;6272517;28;20124;-76
2021/08/10 04:50:30;;;;;;;3.17;2.53;;;15.10;99.90;;;;;;6272902;28;20175;-75
2021/08/10 04:53:32;;;;;;;3.10;2.80;;;15.20;99.90;;;;;;6272345;28;20122;-75
2021/08/10 04:56:34;;;;;;;5.65;2.28;;;15.40;99.90;;;;;;6271763;28;20583;-75
2021/08/10 04:59:35;;;;;;;5.85;2.40;;;15.50;99.90;;;;;;6272178;28;20133;-74
2021/08/10 05:02:38;;;;;;;8.18;2.97;;;15.60;99.90;;;;;;6271937;28;20044;-75
2021/08/10 05:05:41;;;;;;;5.85;3.10;;;15.70;99.90;;;;;;6272081;28;20059;-75
2021/08/10 05:08:43;;;;;;;7.07;2.80;;;15.80;99.90;;;;;;6272595;28;20041;-76
2021/08/10 05:11:45;;;;;;;8.82;2.70;;;15.80;99.90;;;;;;6271971;28;20053;-76
2021/08/10 05:14:46;;;;;;;3.20;2.58;;;15.90;99.90;;;;;;6271806;28;20498;-75
2021/08/10 05:17:48;;;;;;;7.65;3.55;;;16.00;99.90;;;;;;6271871;28;20572;-75
2021/08/10 05:20:51;;;;;;;4.05;2.28;;;16.00;99.90;;;;;;6271691;28;20128;-75
2021/08/10 05:23:53;;;;;;;3.28;2.72;;;16.10;99.90;;;;;;6271733;28;20137;-76
2021/08/10 05:26:55;;;;;;;4.93;2.58;;;16.20;99.90;;;;;;6271441;28;20178;-75
2021/08/10 05:29:57;;;;;;;3.97;2.13;;;16.30;99.90;;;;;;6271818;28;20569;-75
2021/08/10 05:32:58;;;;;;;3.17;2.60;;;16.50;99.90;;;;;;6271384;28;20044;-74
2021/08/10 05:36:01;;;;;;;6.20;2.72;;;16.70;99.90;;;;;;6271497;28;20127;-76
2021/08/10 05:39:04;;;;;;;3.13;2.67;;;16.90;99.90;;;;;;6271440;28;20413;-76
2021/08/10 05:42:06;;;;;;;4.30;2.58;;;17.00;99.50;;;;;;6271678;28;20048;-76
2021/08/10 05:45:08;;;;;;;4.07;2.72;;;17.10;99.40;;;;;;6271124;28;20045;-76
2021/08/10 05:48:11;;;;;;;4.47;2.58;;;17.20;99.30;;;;;;6271021;28;20123;-75
2021/08/10 05:51:15;;;;;;;2.45;2.15;;;17.40;98.90;;;;;;6271210;28;20045;-75
2021/08/10 05:54:17;;;;;;;5.50;2.95;;;17.40;98.60;;;;;;6271608;28;20048;-75
2021/08/10 05:57:18;;;;;;;3.53;2.20;;;17.60;98.00;;;;;;6270649;28;20087;-76
2021/08/10 06:00:20;;;;;;;3.30;2.50;;;17.80;97.10;;;;;;6270462;28;20045;-76
2021/08/10 06:03:22;;;;;;;3.60;1.85;;;17.90;96.30;;;;;;6267626;28;20180;-74
2021/08/10 06:06:25;;;;;;;2.58;2.28;;;18.10;95.50;;;;;;6263459;28;20106;-75
2021/08/10 06:09:27;;;;;;;8.15;2.90;;;18.20;95.00;;;;;;6270491;28;20071;-76
2021/08/10 06:12:29;;;;;;;4.55;2.25;;;18.40;94.40;;;;;;6270183;28;20049;-75
2021/08/10 06:15:31;;;;;;;2.78;2.58;;;18.50;93.60;;;;;;6270490;28;20089;-76
2021/08/10 06:18:33;;;;;;;4.60;2.78;;;18.70;92.80;;;;;;6270449;28;20083;-76
2021/08/10 06:21:37;;;;;;;2.78;2.35;;;18.80;92.10;;;;;;6270608;28;20120;-75
2021/08/10 06:24:38;;;;;;;5.43;2.65;;;19.00;91.60;;;;;;6270363;28;20087;-75
2021/08/10 06:27:40;;;;;;;7.07;3.35;;;19.00;91.20;;;;;;6270221;28;20048;-75
2021/08/10 06:30:42;;;;;;;6.32;2.70;;;19.10;90.90;;;;;;6270540;28;20128;-75
2021/08/10 06:33:44;;;;;;;4.15;2.30;;;19.20;90.40;;;;;;6270939;28;20049;-75
2021/08/10 06:36:47;;;;;;;8.77;2.55;;;19.40;89.90;;;;;;6270075;28;20052;-75
2021/08/10 06:39:49;;;;;;;6.78;2.45;;;19.50;88.20;;;;;;6272933;28;20636;-75
2021/08/10 06:42:51;;;;;;;5.07;2.42;;;19.60;86.80;;;;;;6275481;28;20045;-75
2021/08/10 06:45:53;;;;;;;5.95;2.20;;;19.70;85.60;;;;;;6275271;28;20100;-76
2021/08/10 06:48:54;;;;;;;3.50;2.55;;;19.80;85.70;;;;;;6274992;28;20053;-75
2021/08/10 06:51:58;;;;;;;2.42;1.85;;;20.00;85.40;;;;;;6275091;28;20128;-76
2021/08/10 06:54:59;;;;;;;4.75;2.05;;;20.10;84.10;;;;;;6275211;28;20118;-76
2021/08/10 06:58:01;;;;;;;3.05;1.65;;;20.40;81.90;;;;;;6275042;28;20193;-76
2021/08/10 07:01:04;;;;;;;4.88;1.95;;;20.60;79.90;;;;;;6274787;28;20516;-75
2021/08/10 07:04:06;;;;;;;3.05;2.17;;;20.80;78.90;;;;;;6274623;28;20069;-76
2021/08/10 07:07:09;;;;;;;2.85;1.70;;;21.00;78.20;;;;;;6274583;28;20121;-76
2021/08/10 07:10:12;;;;;;;4.13;2.47;;;21.10;76.60;;;;;;6274995;28;20136;-76
2021/08/10 07:13:13;;;;;;;3.70;1.73;;;21.30;76.30;;;;;;6274633;28;20563;-76
2021/08/10 07:16:15;;;;;;;1.77;1.23;;;21.70;75.00;;;;;;6274468;28;20079;-75
2021/08/10 07:19:17;;;;;;;4.75;1.75;;;22.00;73.30;;;;;;6274637;28;20079;-74
2021/08/10 07:22:20;;;;;;;2.50;1.58;;;22.10;71.80;;;;;;6274795;28;20131;-75
2021/08/10 07:25:22;;;;;;;4.15;1.52;;;22.20;71.70;;;;;;6274232;28;20087;-75
2021/08/10 07:28:24;;;;;;;3.95;1.88;;;22.40;71.30;;;;;;6274084;28;20570;-75
2021/08/10 07:31:26;;;;;;;3.13;1.50;;;22.40;70.50;;;;;;6274088;28;20169;-75
2021/08/10 07:34:28;;;;;;;1.35;1.20;;;22.40;69.80;;;;;;6274552;28;20049;-76
2021/08/10 07:37:31;;;;;;;2.78;1.85;;;22.50;69.60;;;;;;6273854;28;20251;-76
2021/08/10 07:40:33;;;;;;;3.47;1.75;;;22.70;69.30;;;;;;6274174;28;20128;-76
2021/08/10 07:43:35;;;;;;;9.35;1.90;;;23.00;68.70;;;;;;6273151;28;20101;-75
2021/08/10 07:46:37;;;;;;;3.53;1.77;;;23.10;67.40;;;;;;6273239;28;20049;-75
2021/08/10 07:49:39;;;;;;;11.52;3.05;;;23.10;67.00;;;;;;6274004;28;20183;-75
2021/08/10 07:52:42;;;;;;;3.20;1.30;;;23.20;67.60;;;;;;6272639;28;20052;-75
2021/08/10 07:55:44;;;;;;;2.88;1.73;;;23.30;66.90;;;;;;6273368;28;20227;-76
2021/08/10 07:58:46;;;;;;;4.70;1.30;;;23.40;67.00;;;;;;6273155;28;20117;-76
2021/08/10 08:01:47;;;;;;;5.22;1.60;;;23.70;65.60;;;;;;6274090;28;20051;-76
2021/08/10 08:04:49;;;;;;;2.72;1.90;;;24.00;64.00;;;;;;6273259;28;20045;-75
2021/08/10 08:07:52;;;;;;;3.85;1.80;;;24.20;63.60;;;;;;6273220;28;20126;-75
2021/08/10 08:10:54;;;;;;;4.35;1.40;;;24.60;63.20;;;;;;6273364;28;20528;-76
2021/08/10 08:13:56;;;;;;;4.25;2.20;;;24.90;61.90;;;;;;6273356;28;20132;-76
2021/08/10 08:16:58;;;;;;;3.13;1.70;;;25.00;61.80;;;;;;6273132;28;20045;-76
2021/08/10 08:20:00;;;;;;;5.75;1.90;;;25.40;60.80;;;;;;6273697;28;20179;-76
2021/08/10 08:23:03;;;;;;;3.33;2.00;;;25.60;59.20;;;;;;6273278;28;20048;-76
2021/08/10 08:26:06;;;;;;;3.60;1.73;;;25.70;58.20;;;;;;6273358;28;20060;-76
2021/08/10 08:29:08;;;;;;;4.97;2.20;;;25.70;58.60;;;;;;6273248;28;20064;-76
2021/08/10 08:32:10;;;;;;;8.65;1.83;;;26.00;58.30;;;;;;6272745;28;20187;-76
2021/08/10 08:35:12;;;;;;;8.65;1.80;;;26.00;58.00;;;;;;6272677;28;20186;-75
2021/08/10 08:38:15;;;;;;;2.55;2.10;;;26.00;57.90;;;;;;6273042;28;20497;-76
2021/08/10 08:41:20;;;;;;;5.85;1.80;;;26.00;57.20;;;;;;6272768;28;20095;-75
2021/08/10 08:44:22;;;;;;;2.38;1.80;;;25.90;57.10;;;;;;6272788;28;20526;-76
2021/08/10 08:47:24;;;;;;;2.90;1.40;;;26.00;57.90;;;;;;6272586;28;20044;-75
2021/08/10 08:50:27;;;;;;;2.72;1.63;;;25.90;57.60;;;;;;6273261;28;20092;-75
2021/08/10 08:53:31;;;;;;;2.03;1.42;;;25.60;57.50;;;;;;6272181;28;20049;-76
2021/08/10 08:56:33;;;;;;;7.10;1.83;;;25.50;57.90;;;;;;6273485;28;20464;-76
2021/08/10 08:59:35;;;;;;;3.03;1.50;;;25.40;57.70;;;;;;6273505;28;20521;-76
2021/08/10 09:02:37;;;;;;;4.28;1.65;;;25.20;57.00;;;;;;6308471;23;20091;-76
2021/08/10 09:05:44;;;;;;;1.42;1.30;;;25.10;57.30;;;;;;6272700;28;20045;-76
2021/08/10 09:08:51;;;;;;;5.50;2.37;;;25.20;57.80;;;;;;6272480;28;20098;-76
2021/08/10 09:11:55;;;;;;;2.13;1.92;;;25.40;58.20;;;;;;6272783;28;20205;-76
2021/08/10 09:14:56;;;;;;;4.90;1.50;;;25.40;57.50;;;;;;6270181;28;20124;-75
2021/08/10 09:18:08;;;;;;;2.38;1.52;;;25.50;57.70;;;;;;6270936;28;20098;-75
2021/08/10 09:21:12;;;;;;;3.78;2.10;;;25.70;57.40;;;;;;6271939;28;20519;-75
2021/08/10 09:24:15;;;;;;;4.07;1.27;;;25.80;55.50;;;;;;6271527;28;20132;-75
2021/08/10 09:27:30;;;;;;;1.73;1.10;;;26.00;55.90;;;;;;6271501;28;20514;-75
2021/08/10 09:30:33;;;;;;;2.83;1.23;;;26.20;54.60;;;;;;6272071;28;20056;-75
2021/08/10 09:33:40;;;;;;;2.83;1.63;;;26.30;53.80;;;;;;6271592;28;20533;-75
2021/08/10 09:36:42;;;;;;;4.57;1.77;;;26.20;54.40;;;;;;6271091;28;20509;-75
2021/08/10 09:39:45;;;;;;;1.25;1.10;;;26.30;55.00;;;;;;6271704;28;20053;-75
2021/08/10 09:42:48;;;;;;;1.50;1.38;;;26.40;55.00;;;;;;6271291;28;20041;-74
2021/08/10 09:45:49;;;;;;;2.50;1.45;;;26.40;54.60;;;;;;6271567;28;20057;-76
2021/08/10 09:48:55;;;;;;;4.55;2.00;;;26.40;55.70;;;;;;6271565;28;20132;-75
2021/08/10 09:51:57;;;;;;;5.18;1.77;;;26.50;54.00;;;;;;6271230;28;20041;-75
2021/08/10 09:55:12;;;;;;;5.13;1.40;;;26.40;53.90;;;;;;6271086;28;20093;-75
2021/08/10 09:58:14;;;;;;;8.05;3.22;;;26.40;54.90;;;;;;6271398;28;20053;-75
2021/08/10 10:01:31;;;;;;;3.45;1.85;;;26.40;54.10;;;;;;6270600;28;20502;-76
2021/08/10 10:04:33;;;;;;;3.28;2.00;;;26.40;55.10;;;;;;6270540;28;20052;-76
2021/08/10 10:07:34;;;;;;;1.90;1.02;;;26.40;54.40;;;;;;6270555;28;20132;-75
2021/08/10 10:10:38;;;;;;;4.63;1.42;;;26.50;53.90;;;;;;6271185;28;20135;-77
2021/08/10 10:13:40;;;;;;;1.55;1.27;;;26.50;54.00;;;;;;6260030;28;20080;-76
2021/08/10 10:16:45;;;;;;;3.28;1.35;;;26.40;55.40;;;;;;6246614;28;20128;-77
2021/08/10 10:19:47;;;;;;;1.48;1.38;;;26.40;54.90;;;;;;6246306;28;20045;-76
2021/08/10 10:22:49;;;;;;;4.63;1.52;;;26.50;54.30;;;;;;6234365;28;20196;-75
2021/08/10 10:25:53;;;;;;;2.13;1.27;;;26.60;53.00;;;;;;6245231;28;20053;-75
2021/08/10 10:28:56;;;;;;;4.47;1.35;;;26.80;53.80;;;;;;6245717;28;20045;-75
2021/08/10 10:31:58;;;;;;;3.58;1.50;;;26.80;54.70;;;;;;6245973;28;20179;-76
2021/08/10 10:35:00;;;;;;;2.35;1.20;;;26.90;54.30;;;;;;6245487;28;20200;-77
2021/08/10 10:38:02;;;;;;;1.95;1.27;;;27.00;54.50;;;;;;6245720;28;20541;-75
2021/08/10 10:41:07;;;;;;;3.42;1.45;;;27.20;53.50;;;;;;6245383;28;20069;-75
2021/08/10 10:44:10;;;;;;;3.30;1.42;;;27.30;53.20;;;;;;6245413;28;20404;-74
2021/08/10 10:47:38;;;;;;;2.58;1.33;;;27.30;52.60;;;;;;6244726;28;20077;-74
2021/08/10 10:51:01;;;;;;;;;;;27.20;52.90;;;;;;6245790;28;20411;-75
2021/08/10 10:54:25;;;;;;;1.90;1.13;;;27.20;53.70;;;;;;6246282;28;19964;-76
2021/08/10 10:57:37;;;;;;;2.75;1.77;;;27.20;54.10;;;;;;6245113;28;20048;-75
2021/08/10 11:00:39;;;;;;;2.92;1.50;;;27.20;52.60;;;;;;6245222;28;20437;-76
2021/08/10 11:03:44;;;;;;;3.80;1.23;;;27.10;53.50;;;;;;6244795;28;20107;-75
2021/08/10 11:06:47;;;;;;;3.58;1.83;;;27.10;53.90;;;;;;6244937;28;20514;-75
2021/08/10 11:09:56;;;;;;;10.95;1.83;;;27.10;52.50;;;;;;6245686;28;20526;-75
2021/08/10 11:12:59;;;;;;;4.38;1.55;;;27.20;51.70;;;;;;6245014;28;20431;-75
2021/08/10 11:16:01;;;;;;;2.70;1.42;;;27.20;52.10;;;;;;6245892;28;20559;-75
2021/08/10 11:19:30;;;;;;;2.60;1.30;;;27.20;52.30;;;;;;6246005;28;20038;-75
2021/08/10 11:22:32;;;;;;;4.95;1.23;;;27.20;51.00;;;;;;6245032;28;20464;-75
2021/08/10 11:25:34;;;;;;;3.90;1.50;;;27.20;51.10;;;;;;6245467;28;20245;-75
2021/08/10 11:28:38;;;;;;;5.10;0.90;;;27.10;51.80;;;;;;6249296;28;20050;-75
2021/08/10 11:31:44;;;;;;;2.08;0.93;;;27.10;50.80;;;;;;6249965;28;20128;-75
2021/08/10 11:34:46;;;;;;;2.80;1.35;;;27.00;51.30;;;;;;6248623;28;20057;-75
2021/08/10 11:38:11;;;;;;;5.53;1.85;;;27.10;50.70;;;;;;6249043;28;20499;-75
2021/08/10 11:41:14;;;;;;;2.03;1.42;;;27.20;51.00;;;;;;6248740;28;20108;-75
2021/08/10 11:44:20;;;;;;;5.15;1.10;;;27.20;50.80;;;;;;6248672;28;20047;-75
2021/08/10 11:47:21;;;;;;;1.60;1.25;;;27.20;50.70;;;;;;6248046;28;20415;-76
2021/08/10 11:50:27;;;;;;;3.85;1.52;;;27.10;51.80;;;;;;6248756;28;20049;-75
2021/08/10 11:53:31;;;;;;;2.38;1.10;;;27.10;51.80;;;;;;6248380;28;20049;-76
2021/08/10 11:56:34;;;;;;;3.70;1.17;;;27.20;52.20;;;;;;6248004;28;20053;-75
2021/08/10 11:59:38;;;;;;;3.03;1.10;;;27.20;52.70;;;;;;6248313;28;20065;-75
2021/08/10 12:02:43;;;;;;;3.03;0.88;;;27.30;52.10;;;;;;6248056;28;20095;-75
2021/08/10 12:05:45;;;;;;;3.10;1.10;;;27.30;50.80;;;;;;6248200;28;20053;-75
2021/08/10 12:08:47;;;;;;;3.25;1.17;;;27.40;51.80;;;;;;6247888;28;20045;-77
2021/08/10 12:11:53;;;;;;;5.75;1.58;;;27.50;51.60;;;;;;6247999;28;20045;-75
2021/08/10 12:14:56;;;;;;;5.25;2.13;;;27.50;51.10;;;;;;6268605;28;20044;-76
2021/08/10 12:17:57;;;;;;;2.70;1.55;;;27.50;51.10;;;;;;6273494;28;20132;-75
2021/08/10 12:21:01;;;;;;;1.77;1.17;;;27.40;51.20;;;;;;6272349;28;20118;-75
2021/08/10 12:24:04;;;;;;;4.63;1.70;;;27.50;49.00;;;;;;6265396;28;20566;-74
2021/08/10 12:27:06;;;;;;;5.82;1.80;;;27.50;49.50;;;;;;6231745;28;20422;-75
2021/08/10 12:30:16;;;;;;;3.05;0.90;;;27.60;50.20;;;;;;6223669;28;20054;-74
2021/08/10 12:33:22;;;;;;;2.35;1.50;;;27.60;49.60;;;;;;6222634;28;20085;-75
2021/08/10 12:36:24;;;;;;;2.78;1.58;;;27.60;50.20;;;;;;6221667;28;20050;-75
2021/08/10 12:39:27;;;;;;;4.25;1.27;;;27.70;47.70;;;;;;6222700;28;20096;-75
2021/08/10 12:42:29;;;;;;;4.28;2.00;;;27.70;47.60;;;;;;6223259;28;20116;-75
2021/08/10 12:45:34;;;;;;;3.20;1.10;;;27.80;47.50;;;;;;6222519;28;20639;-75
2021/08/10 12:48:35;;;;;;;2.85;1.60;;;27.80;48.40;;;;;;6222491;28;20099;-75
2021/08/10 12:51:57;;;;;;;3.47;1.40;;;27.80;48.10;;;;;;6222759;28;20210;-76
2021/08/10 12:55:00;;;;;;;6.45;1.63;;;27.80;48.40;;;;;;6222638;28;20042;-75
2021/08/10 12:58:03;;;;;;;3.90;1.50;;;27.80;48.10;;;;;;6222199;28;20086;-75
2021/08/10 13:01:07;;;;;;;6.40;1.10;;;27.80;47.50;;;;;;6222556;28;20589;-75
2021/08/10 13:04:10;;;;;;;3.63;1.33;;;27.80;48.10;;;;;;6222643;28;20049;-77
2021/08/10 13:07:13;;;;;;;3.42;2.00;;;27.90;49.10;;;;;;6224452;28;20506;-78
2021/08/10 13:10:15;;;;;;;1.45;1.13;;;28.00;48.70;;;;;;6222687;28;20050;-75
2021/08/10 13:13:25;;;;;;;1.20;0.98;;;28.10;47.30;;;;;;6236215;28;20160;-75
2021/08/10 13:16:36;;;;;;;5.70;1.92;;;28.10;47.20;;;;;;6271127;28;20051;-76
2021/08/10 13:19:38;;;;;;;2.72;1.27;;;28.20;47.00;;;;;;6271231;28;20403;-76
2021/08/10 13:22:48;;;;;;;2.03;1.27;;;28.10;47.30;;;;;;6271033;28;20049;-76
2021/08/10 13:26:00;;;;;;;3.83;1.52;;;28.20;48.50;;;;;;6257127;28;20140;-76
2021/08/10 13:29:02;;;;;;;3.42;1.52;;;28.30;47.60;;;;;;6243429;28;20073;-75
2021/08/10 13:32:16;;;;;;;5.70;1.55;;;28.40;48.30;;;;;;6246399;28;20076;-75
2021/08/10 13:35:18;;;;;;;2.72;1.40;;;28.40;46.40;;;;;;6245928;28;20127;-75
2021/08/10 13:38:20;;;;;;;2.67;1.50;;;28.50;47.10;;;;;;6246198;28;20053;-75
2021/08/10 13:41:23;;;;;;;3.55;1.58;;;28.60;46.90;;;;;;6245891;28;20120;-75
2021/08/10 13:44:25;;;;;;;3.85;1.80;;;28.70;45.80;;;;;;6245747;28;20045;-76
2021/08/10 13:47:28;;;;;;;3.55;1.67;;;28.70;46.20;;;;;;6245604;28;20041;-76
2021/08/10 13:50:30;;;;;;;3.28;1.38;;;28.60;46.90;;;;;;6246140;28;20081;-76
2021/08/10 13:53:32;;;;;;;2.28;1.25;;;28.60;47.30;;;;;;6245542;28;20042;-76
2021/08/10 13:56:34;;;;;;;2.50;1.70;;;28.60;47.40;;;;;;6245262;28;20730;-76
2021/08/10 13:59:36;;;;;;;3.38;1.70;;;28.60;47.30;;;;;;6245903;28;20053;-76
2021/08/10 14:02:42;;;;;;;3.10;1.70;;;28.60;47.00;;;;;;6245531;28;20042;-77
2021/08/10 14:05:44;;;;;;;7.78;2.13;;;28.70;46.70;;;;;;6245745;28;20053;-75
2021/08/10 14:08:47;;;;;;;8.48;2.10;;;28.70;46.40;;;;;;6245386;28;20092;-76
2021/08/10 14:11:49;;;;;;;1.73;1.42;;;28.80;46.80;;;;;;6245476;28;20053;-76
2021/08/10 14:14:51;;;;;;;5.65;1.98;;;29.00;46.50;;;;;;6265272;28;20414;-75
2021/08/10 14:17:54;;;;;;;3.13;1.67;;;29.10;45.50;;;;;;6270031;28;20076;-76
2021/08/10 14:20:56;;;;;;;2.35;1.65;;;29.10;45.70;;;;;;6269802;28;20083;-76
2021/08/10 14:23:58;;;;;;;4.88;1.52;;;29.10;46.10;;;;;;6269549;28;20106;-76
2021/08/10 14:27:00;;;;;;;1.90;1.23;;;29.00;46.60;;;;;;6254839;28;20057;-76
2021/08/10 14:30:03;;;;;;;6.40;1.30;;;28.90;47.10;;;;;;6242918;28;20111;-76
2021/08/10 14:33:07;;;;;;;11.57;2.30;;;28.90;47.20;;;;;;6245015;28;20049;-76
2021/08/10 14:36:09;;;;;;;13.80;3.90;;;28.80;46.40;;;;;;6244628;28;20049;-76
2021/08/10 14:39:11;;;;;;;2.55;1.08;;;28.70;46.20;;;;;;6245359;28;20041;-76
2021/08/10 14:42:13;;;;;;;4.22;1.48;;;28.70;46.50;;;;;;6245148;28;20076;-76
2021/08/10 14:45:15;;;;;;;2.25;1.40;;;28.80;47.20;;;;;;6244966;28;20154;-76
2021/08/10 14:48:18;;;;;;;2.22;1.40;;;28.90;46.50;;;;;;6244503;28;20414;-76
2021/08/10 14:51:20;;;;;;;3.83;1.70;;;29.00;46.00;;;;;;6244848;28;20037;-77
2021/08/10 14:54:22;;;;;;;3.25;1.63;;;29.00;45.80;;;;;;6245364;28;20525;-76
2021/08/10 14:57:24;;;;;;;4.93;1.70;;;29.20;46.10;;;;;;6244375;28;20410;-76
2021/08/10 15:00:26;;;;;;;1.60;1.42;;;29.40;45.20;;;;;;6246773;28;20522;-76
2021/08/10 15:03:29;;;;;;;3.65;2.03;;;29.60;45.20;;;;;;6249693;28;20119;-75
2021/08/10 15:06:31;;;;;;;2.60;1.70;;;29.80;45.00;;;;;;6249837;28;20085;-76
2021/08/10 15:09:33;;;;;;;4.75;1.25;;;30.00;44.80;;;;;;6249225;28;20764;-75
2021/08/10 15:12:34;;;;;;;5.07;1.30;;;29.80;44.50;;;;;;6247983;28;20091;-75
2021/08/10 15:15:36;;;;;;;4.85;1.42;;;29.70;45.10;;;;;;6249088;28;20045;-74
2021/08/10 15:18:39;;;;;;;5.95;1.40;;;29.80;45.10;;;;;;6249356;28;20055;-75
2021/08/10 15:21:41;;;;;;;3.50;1.35;;;29.70;44.80;;;;;;6251216;28;20142;-76
2021/08/10 15:24:43;;;;;;;2.72;1.98;;;29.70;45.30;;;;;;6250603;28;20096;-76
2021/08/10 15:27:45;;;;;;;1.90;1.70;;;29.80;45.70;;;;;;6239938;28;20045;-76
2021/08/10 15:30:47;;;;;;;1.80;1.38;;;29.80;46.00;;;;;;6249580;28;20132;-76
2021/08/10 15:33:50;;;;;;;3.35;1.77;;;29.90;45.40;;;;;;6249647;28;20132;-76
2021/08/10 15:36:52;;;;;;;2.78;1.55;;;29.90;46.00;;;;;;6249591;28;20084;-75
2021/08/10 15:39:54;;;;;;;3.90;1.98;;;29.80;45.90;;;;;;6249778;28;20519;-76
2021/08/10 15:42:55;;;;;;;7.00;2.47;;;29.80;45.80;;;;;;6248422;28;20523;-75
2021/08/10 15:45:57;;;;;;;4.13;1.55;;;29.60;46.20;;;;;;6248866;28;20081;-76
2021/08/10 15:49:00;;;;;;;2.75;1.58;;;29.60;46.80;;;;;;6248500;28;20123;-76
2021/08/10 15:52:02;;;;;;;2.85;1.50;;;29.60;46.30;;;;;;6248713;28;20136;-76
2021/08/10 15:55:05;;;;;;;3.42;1.83;;;29.50;46.30;;;;;;6248369;28;20080;-75
2021/08/10 15:58:08;;;;;;;5.90;1.70;;;29.40;46.40;;;;;;6248527;28;20180;-76